»·PEaware :: ENY9301 KBOI-KMSO

ENY9301 :: KBOI-KMSO

FLIGHT INFORMATION

Flight Status: Arrived
Operator: Unknown
More flights by this operator :: More flights under this callsign
Pilot: Anonymous 3903 (3903)
Aircraft: EMBRAER ERJ-145
(E145)
More flights by this aircraft type
Origin: KBOI Boise Air Terminal/Gowen
United States
Destination: KMSO Missoula Intl
United States
More flights between these airports :: More routes between these airports
Route: +BOI3 LKT MSO
File this flight plan on PilotEdge
Remarks:
Altitude:
(Current/Filed)
24,000ft
Speed:
(Current/Filed)
400kts
Departed: 17-Mar-20 05:22 PM
Arrived: 17-Mar-20 06:07 PM
Distance/Time
Traveled:
220nm/0:45
Distance/Time
To Go:
Arrived

Flight Plot

Page will automatically refresh every two minutes.


Map Options




Map Legend


Flown Route
Filed Route
Departure Airport
Arrival Airport
Navaid (VOR, NDB)
Fix

Horizontal Profiles

Position Reports

Time Latitude Longitude Heading Altitude Ground
Speed
17-Mar-20 16:57 43.564260 -116.235858 173 2837ft 0kts
17-Mar-20 16:58 43.564259 -116.235858 173 2837ft 0kts
17-Mar-20 16:59 43.564258 -116.235858 173 2837ft 0kts
17-Mar-20 17:00 43.564257 -116.235858 173 2837ft 0kts
17-Mar-20 17:01 43.564256 -116.235858 173 2837ft 0kts
17-Mar-20 17:02 43.564255 -116.235858 173 2837ft 0kts
17-Mar-20 17:03 43.564254 -116.235858 173 2837ft 0kts
17-Mar-20 17:04 43.564253 -116.235857 173 2837ft 0kts
17-Mar-20 17:05 43.564252 -116.235857 173 2837ft 0kts
17-Mar-20 17:06 43.564251 -116.235857 173 2837ft 0kts
17-Mar-20 17:07 43.564249 -116.235857 173 2837ft 0kts
17-Mar-20 17:08 43.564248 -116.235857 173 2837ft 0kts
17-Mar-20 17:09 43.564109 -116.235838 175 2837ft 5kts
17-Mar-20 17:10 43.564447 -116.238660 290 2837ft 10kts
17-Mar-20 17:11 43.566010 -116.241932 289 2837ft 11kts
17-Mar-20 17:12 43.567449 -116.242558 329 2837ft 0kts
17-Mar-20 17:14 43.567451 -116.242560 329 2837ft 0kts
17-Mar-20 17:15 43.567453 -116.242561 329 2837ft 0kts
17-Mar-20 17:16 43.567498 -116.242598 329 2837ft 0kts
17-Mar-20 17:17 43.567500 -116.242599 329 2837ft 0kts
17-Mar-20 17:18 43.567716 -116.242455 35 2837ft 0kts
17-Mar-20 17:19 43.568589 -116.242072 6 2837ft 4kts
17-Mar-20 17:20 43.568795 -116.242046 5 2837ft 0kts
17-Mar-20 17:21 43.569542 -116.241189 116 2837ft 0kts
17-Mar-20 17:22 43.561659 -116.218069 115 2951ft 152kts
17-Mar-20 17:23 43.542714 -116.154107 110 4896ft 212kts
17-Mar-20 17:24 43.521154 -116.076587 111 7629ft 220kts
17-Mar-20 17:25 43.542539 -116.000631 42 9596ft 259kts
17-Mar-20 17:26 43.600170 -115.925858 45 11124ft 303kts
17-Mar-20 17:27 43.665275 -115.840811 45 12510ft 337kts
17-Mar-20 17:28 43.733817 -115.751517 45 14450ft 341kts
17-Mar-20 17:29 43.803929 -115.660324 45 16134ft 349kts
17-Mar-20 17:29 43.863032 -115.583574 45 17440ft 352kts
17-Mar-20 17:30 43.934788 -115.490505 45 18957ft 355kts
17-Mar-20 17:32 44.019792 -115.380388 44 20673ft 359kts
17-Mar-20 17:33 44.093057 -115.285623 44 22174ft 360kts
17-Mar-20 17:33 44.155744 -115.204597 43 22515ft 386kts
17-Mar-20 17:35 44.251593 -115.080826 43 22803ft 417kts
17-Mar-20 17:36 44.338854 -114.968259 43 22799ft 433kts
17-Mar-20 17:36 44.413319 -114.872242 43 22796ft 443kts
17-Mar-20 17:38 44.520462 -114.734344 42 22793ft 453kts
17-Mar-20 17:38 44.598444 -114.634224 42 22787ft 458kts
17-Mar-20 17:39 44.691784 -114.513855 42 22783ft 447kts
17-Mar-20 17:40 44.782119 -114.396781 42 22785ft 439kts
17-Mar-20 17:41 44.871692 -114.280110 43 22788ft 438kts
17-Mar-20 17:42 44.960838 -114.163646 43 22793ft 437kts
17-Mar-20 17:43 45.056591 -114.061344 12 22798ft 432kts
17-Mar-20 17:45 45.194691 -114.071507 354 22801ft 427kts
17-Mar-20 17:45 45.294448 -114.078703 356 21998ft 431kts
17-Mar-20 17:46 45.411807 -114.082704 357 19991ft 413kts
17-Mar-20 17:47 45.525927 -114.084619 358 17980ft 394kts
17-Mar-20 17:48 45.631083 -114.085581 358 15952ft 363kts
17-Mar-20 17:49 45.729339 -114.086498 358 14208ft 337kts
17-Mar-20 17:50 45.805439 -114.087757 358 14014ft 358kts
17-Mar-20 17:51 45.905888 -114.089560 359 14010ft 356kts
17-Mar-20 17:52 46.004292 -114.090034 0 14016ft 351kts
17-Mar-20 17:53 46.101549 -114.088589 0 14021ft 348kts
17-Mar-20 17:54 46.198297 -114.087321 359 14022ft 348kts
17-Mar-20 17:55 46.293820 -114.070282 15 13010ft 342kts
17-Mar-20 17:56 46.383415 -114.036471 15 11105ft 322kts
17-Mar-20 17:57 46.464907 -114.005278 15 9855ft 285kts
17-Mar-20 17:58 46.539171 -114.002357 352 8849ft 252kts
17-Mar-20 17:59 46.611465 -114.015636 353 8072ft 271kts
17-Mar-20 18:00 46.684314 -114.029065 353 8012ft 257kts
17-Mar-20 18:01 46.756393 -114.040131 2 7928ft 253kts
17-Mar-20 18:02 46.816391 -114.022718 13 6162ft 185kts
17-Mar-20 18:03 46.862534 -114.019117 350 4370ft 148kts
17-Mar-20 18:04 46.894263 -114.054481 313 3616ft 151kts
17-Mar-20 18:05 46.918614 -114.095861 311 3208ft 65kts
17-Mar-20 18:06 46.921710 -114.098387 41 3208ft 8kts
17-Mar-20 18:07 46.919479 -114.093664 130 3208ft 17kts

Navigation Log

Ident Type
Flight plan parsing failed, navigation log unavailable